createdAt,value
2019-01-05T00:02:53.530Z,86.26
2019-01-05T00:06:15.710Z,86.01
2019-01-05T00:09:42.006Z,85.69
2019-01-05T00:16:38.393Z,85.72
2019-01-05T00:19:45.589Z,86.03
2019-01-05T00:22:51.765Z,86.30
2019-01-05T00:25:56.105Z,86.71
2019-01-05T00:29:09.373Z,86.54
2019-01-05T00:33:05.299Z,86.35
2019-01-05T00:36:12.193Z,86.09
2019-01-05T00:39:24.279Z,85.53
2019-01-05T00:42:16.775Z,84.87
2019-01-05T00:45:14.500Z,84.64
2019-01-05T00:48:07.027Z,84.27
2019-01-05T00:51:11.897Z,84.05
2019-01-05T00:54:10.628Z,83.65
2019-01-05T00:57:03.393Z,83.74
2019-01-05T01:00:01.174Z,83.77
2019-01-05T01:06:11.868Z,84.11
2019-01-05T01:09:02.763Z,84.20
2019-01-05T01:11:52.066Z,84.11
2019-01-05T01:14:42.280Z,83.33
2019-01-05T01:17:29.331Z,83.39
2019-01-05T01:20:32.726Z,83.67
2019-01-05T01:23:25.043Z,83.54
2019-01-05T01:26:25.799Z,83.63
2019-01-05T01:29:24.025Z,83.41
2019-01-05T01:32:15.992Z,83.31
2019-01-05T01:35:07.344Z,83.17
2019-01-05T01:41:02.772Z,82.47
2019-01-05T01:44:06.437Z,82.29
2019-01-05T01:46:57.936Z,82.39
2019-01-05T01:49:51.552Z,82.70
2019-01-05T01:52:43.575Z,82.33
2019-01-05T01:55:38.572Z,81.91
2019-01-05T01:58:35.129Z,81.76
2019-01-05T02:01:31.632Z,82.17
2019-01-05T02:04:41.458Z,82.39
2019-01-05T02:07:32.765Z,82.94
2019-01-05T02:10:27.460Z,82.89
2019-01-05T02:13:25.616Z,83.09
2019-01-05T02:16:24.872Z,82.89
2019-01-05T02:19:29.036Z,83.02
2019-01-05T02:23:20.510Z,83.34
2019-01-05T02:27:15.535Z,84.01
2019-01-05T02:30:59.091Z,83.70
2019-01-05T02:34:51.505Z,83.19
2019-01-05T02:38:39.823Z,83.19
2019-01-05T02:42:44.956Z,83.20
2019-01-05T02:46:37.920Z,83.04
2019-01-05T02:57:08.654Z,82.86
2019-01-05T03:01:00.465Z,82.81
2019-01-05T03:04:40.195Z,83.27
2019-01-05T03:08:52.020Z,83.27
2019-01-05T03:12:47.116Z,83.57
2019-01-05T03:16:25.266Z,83.42
2019-01-05T03:20:24.323Z,84.03
2019-01-05T03:24:15.550Z,83.88
2019-01-05T03:28:27.934Z,83.65
2019-01-05T03:32:00.097Z,83.57
2019-01-05T03:35:55.456Z,83.76
2019-01-05T03:39:42.662Z,84.01
2019-01-05T03:43:21.284Z,83.95
2019-01-05T03:47:25.541Z,83.57
2019-01-05T03:50:59.315Z,82.86
2019-01-05T03:54:47.810Z,82.11
2019-01-05T03:58:18.035Z,82.25
2019-01-05T04:02:23.317Z,82.49
2019-01-05T04:05:53.005Z,82.69
2019-01-05T04:09:52.737Z,82.77
2019-01-05T04:13:38.005Z,82.36
2019-01-05T04:17:45.369Z,82.06
2019-01-05T04:25:44.536Z,81.49
2019-01-05T04:29:24.572Z,83.04
2019-01-05T04:33:01.220Z,83.07
2019-01-05T04:36:44.100Z,82.60
2019-01-05T04:40:47.173Z,82.40
2019-01-05T04:44:52.032Z,82.35
2019-01-05T04:48:44.028Z,82.52
2019-01-05T04:52:39.145Z,82.52
2019-01-05T04:56:38.899Z,82.38
2019-01-05T05:00:12.616Z,82.13
2019-01-05T05:04:18.652Z,82.15
2019-01-05T05:08:36.097Z,81.69
2019-01-05T05:12:47.297Z,81.66
2019-01-05T05:16:31.343Z,82.22
2019-01-05T05:20:17.333Z,81.74
2019-01-05T05:24:25.928Z,82.59
2019-01-05T05:28:11.420Z,82.50
2019-01-05T05:31:42.557Z,82.31
2019-01-05T05:35:32.889Z,82.47
2019-01-05T05:39:19.308Z,82.43
2019-01-05T05:46:19.606Z,82.39
2019-01-05T05:50:28.503Z,82.77
2019-01-05T05:54:14.682Z,83.08
2019-01-05T05:57:51.126Z,82.62
2019-01-05T06:01:58.332Z,82.39
2019-01-05T06:05:46.637Z,82.39
2019-01-05T06:09:32.487Z,82.56
2019-01-05T06:13:40.293Z,82.91
2019-01-05T06:17:30.981Z,81.97
2019-01-05T06:21:35.988Z,82.32
2019-01-05T06:25:34.206Z,82.09
2019-01-05T06:32:26.526Z,82.86
2019-01-05T06:36:12.882Z,82.86
2019-01-05T06:40:22.924Z,83.45
2019-01-05T06:44:19.990Z,83.05
2019-01-05T06:48:14.262Z,82.37
2019-01-05T06:51:56.801Z,83.43
2019-01-05T06:55:36.436Z,83.96
2019-01-05T06:59:34.406Z,83.61
2019-01-05T07:03:36.189Z,82.66
2019-01-05T07:07:41.738Z,83.01
2019-01-05T07:11:30.233Z,83.54
2019-01-05T07:15:53.431Z,84.17
2019-01-05T07:20:02.130Z,84.97
2019-01-05T07:24:02.601Z,84.77
2019-01-05T07:27:49.204Z,84.72
2019-01-05T07:31:36.931Z,84.82
2019-01-05T07:34:57.452Z,85.77
2019-01-05T07:38:42.378Z,85.67
2019-01-05T07:42:47.117Z,85.94
2019-01-05T07:47:16.187Z,86.25
2019-01-05T07:51:22.785Z,85.97
2019-01-05T07:55:25.599Z,85.95
2019-01-05T07:59:52.950Z,85.78
2019-01-05T08:03:44.605Z,86.08
2019-01-05T08:13:41.630Z,86.82
2019-01-05T08:18:00.399Z,86.15
2019-01-05T08:21:54.759Z,86.86
2019-01-05T08:25:35.540Z,86.40
2019-01-05T08:29:23.562Z,86.13
2019-01-05T08:33:19.822Z,86.27
2019-01-05T08:37:09.122Z,86.80
2019-01-05T08:40:57.268Z,87.06
2019-01-05T08:44:42.593Z,86.90
2019-01-05T08:48:37.789Z,87.38
2019-01-05T08:52:21.633Z,86.77
2019-01-05T08:56:25.442Z,86.39
2019-01-05T09:00:13.056Z,86.80
2019-01-05T09:04:12.373Z,87.06
2019-01-05T09:14:03.964Z,86.11
2019-01-05T09:17:52.624Z,86.08
2019-01-05T09:21:23.175Z,85.76
2019-01-05T09:25:16.273Z,86.27
2019-01-05T09:29:13.994Z,85.23
2019-01-05T09:33:10.442Z,83.11
2019-01-05T09:37:07.636Z,82.45
2019-01-05T09:40:45.968Z,81.66
2019-01-05T09:44:43.691Z,83.32
2019-01-05T09:48:27.581Z,83.51
2019-01-05T09:52:15.991Z,82.16
2019-01-05T09:56:02.259Z,82.12
2019-01-05T10:04:13.965Z,82.59
2019-01-05T10:08:08.313Z,82.58
2019-01-05T10:12:04.410Z,82.06
2019-01-05T10:16:03.560Z,82.88
2019-01-05T10:19:41.367Z,82.47
2019-01-05T10:23:41.202Z,82.55
2019-01-05T10:27:30.899Z,82.64
2019-01-05T10:31:18.119Z,84.64
2019-01-05T10:35:27.362Z,84.37
2019-01-05T10:39:51.532Z,84.40
2019-01-05T10:43:45.952Z,84.27
2019-01-05T10:47:33.987Z,84.09
2019-01-05T10:51:30.008Z,83.63
2019-01-05T10:55:35.407Z,83.60
2019-01-05T10:59:35.858Z,82.65
2019-01-05T11:03:26.645Z,82.68
2019-01-05T11:07:10.893Z,82.61
2019-01-05T11:11:13.706Z,82.74
2019-01-05T11:15:09.584Z,82.31
2019-01-05T11:19:29.778Z,82.16
2019-01-05T11:23:15.382Z,82.27
2019-01-05T11:27:14.134Z,82.30
2019-01-05T11:30:33.440Z,81.85
2019-01-05T11:42:25.088Z,81.07
2019-01-05T11:46:23.077Z,81.01
2019-01-05T11:50:17.741Z,81.47
2019-01-05T11:54:14.702Z,81.71
2019-01-05T11:57:49.231Z,82.82
2019-01-05T12:05:56.069Z,83.60
2019-01-05T12:14:14.332Z,82.90
2019-01-05T12:18:25.138Z,82.11
2019-01-05T12:22:10.471Z,82.49
2019-01-05T12:26:18.437Z,83.61
2019-01-05T12:30:05.174Z,82.65
2019-01-05T12:34:22.778Z,84.30
2019-01-05T12:38:23.179Z,83.99
2019-01-05T12:42:11.396Z,83.53
2019-01-05T12:46:21.773Z,85.85
2019-01-05T12:50:29.832Z,86.15
2019-01-05T12:54:40.973Z,85.07
2019-01-05T12:58:37.746Z,84.92
2019-01-05T13:02:44.206Z,84.04
2019-01-05T13:06:52.599Z,83.56
2019-01-05T13:10:34.659Z,83.80
2019-01-05T13:14:34.450Z,83.43
2019-01-05T13:18:37.402Z,84.17
2019-01-05T13:22:47.451Z,84.17
2019-01-05T13:26:56.022Z,83.33
2019-01-05T13:31:08.447Z,82.57
2019-01-05T13:35:03.209Z,82.31
2019-01-05T13:39:03.274Z,82.36
2019-01-05T13:42:50.735Z,82.57
2019-01-05T13:46:38.333Z,83.11
2019-01-05T13:50:33.073Z,82.59
2019-01-05T13:53:50.786Z,82.76
2019-01-05T13:56:49.417Z,83.30
2019-01-05T13:59:39.454Z,84.21
2019-01-05T14:02:46.244Z,84.26
2019-01-05T14:05:49.760Z,84.64
2019-01-05T14:08:40.148Z,84.81
2019-01-05T14:11:40.693Z,84.91
2019-01-05T14:14:44.282Z,85.14
2019-01-05T14:17:40.263Z,85.53
2019-01-05T14:20:38.286Z,85.25
2019-01-05T14:23:32.810Z,85.28
2019-01-05T14:26:27.164Z,85.25
2019-01-05T14:29:18.608Z,85.56
2019-01-05T14:32:24.836Z,85.80
2019-01-05T14:35:14.745Z,86.66
2019-01-05T14:38:15.187Z,86.50
2019-01-05T14:41:05.509Z,86.23
2019-01-05T14:43:55.615Z,86.24
2019-01-05T14:46:56.235Z,84.81
2019-01-05T14:49:47.729Z,84.49
2019-01-05T14:52:42.257Z,85.91
2019-01-05T14:55:32.635Z,86.12
2019-01-05T14:58:29.904Z,86.46
2019-01-05T15:01:19.975Z,87.12
2019-01-05T15:04:09.947Z,87.08
2019-01-05T15:07:04.234Z,87.29
2019-01-05T15:09:50.557Z,87.05
2019-01-05T15:12:41.059Z,87.62
2019-01-05T15:15:41.696Z,88.02
2019-01-05T15:18:39.658Z,88.25
2019-01-05T15:21:37.235Z,88.30
2019-01-05T15:24:29.849Z,88.20
2019-01-05T15:27:34.547Z,89.38
2019-01-05T15:33:41.587Z,88.37
2019-01-05T15:36:31.545Z,88.98
2019-01-05T15:39:42.239Z,88.90
2019-01-05T15:42:32.622Z,89.03
2019-01-05T15:45:30.541Z,89.27
2019-01-05T15:48:20.937Z,89.96
2019-01-05T15:51:18.386Z,90.22
2019-01-05T15:54:09.865Z,90.16
2019-01-05T15:57:01.303Z,90.76
2019-01-05T15:59:55.916Z,91.12
2019-01-05T16:02:48.768Z,91.29
2019-01-05T16:05:38.748Z,91.27
2019-01-05T16:08:29.040Z,90.98
2019-01-05T16:11:20.527Z,90.76
2019-01-05T16:14:17.822Z,90.81
2019-01-05T16:17:18.264Z,90.91
2019-01-05T16:20:08.658Z,91.13
2019-01-05T16:23:09.153Z,91.47
2019-01-05T16:26:06.445Z,91.58
2019-01-05T16:29:06.875Z,91.52
2019-01-05T16:31:57.249Z,91.42
2019-01-05T16:34:54.575Z,91.62
2019-01-05T16:37:52.321Z,91.69
2019-01-05T16:40:41.358Z,91.78
2019-01-05T16:43:48.045Z,91.89
2019-01-05T16:46:57.676Z,91.89
2019-01-05T16:49:47.762Z,91.96
2019-01-05T16:58:39.839Z,91.86
2019-01-05T17:01:46.749Z,91.96
2019-01-05T17:04:51.893Z,92.10
2019-01-05T17:07:43.361Z,92.23
2019-01-05T17:10:38.070Z,92.15
2019-01-05T17:13:28.606Z,92.18
2019-01-05T17:16:12.292Z,92.00
2019-01-05T17:19:12.666Z,92.00
2019-01-05T17:22:16.344Z,92.18
2019-01-05T17:25:20.005Z,92.26
2019-01-05T17:28:14.307Z,92.22
2019-01-05T17:31:06.139Z,92.22
2019-01-05T17:33:57.576Z,92.32
2019-01-05T17:36:51.728Z,92.31
2019-01-05T17:39:48.962Z,92.49
2019-01-05T17:42:41.031Z,92.41
2019-01-05T17:45:32.455Z,92.38
2019-01-05T17:48:33.083Z,92.50
2019-01-05T17:51:23.225Z,92.41
2019-01-05T17:54:30.545Z,92.23
2019-01-05T17:57:24.851Z,92.32
2019-01-05T18:00:10.662Z,92.40
2019-01-05T18:03:02.194Z,92.51
2019-01-05T18:05:54.618Z,92.46
2019-01-05T18:08:45.051Z,92.28
2019-01-05T18:11:42.845Z,92.23
2019-01-05T18:14:43.222Z,92.18
2019-01-05T18:17:40.810Z,92.14
2019-01-05T18:20:39.367Z,92.00
2019-01-05T18:23:33.817Z,91.78
2019-01-05T18:26:43.506Z,91.92
2019-01-05T18:29:33.533Z,91.73
2019-01-05T18:32:23.791Z,91.55
2019-01-05T18:35:24.529Z,91.63
2019-01-05T18:38:22.254Z,91.51
2019-01-05T18:41:19.571Z,91.36
2019-01-05T18:44:10.033Z,91.38
2019-01-05T18:47:16.817Z,91.28
2019-01-05T18:50:07.019Z,91.20
2019-01-05T18:53:11.252Z,90.99
2019-01-05T18:56:08.826Z,91.12
2019-01-05T18:59:15.362Z,90.97
2019-01-05T19:02:24.830Z,90.80
2019-01-05T19:05:14.669Z,90.92
2019-01-05T19:08:18.196Z,90.67
2019-01-05T19:11:08.219Z,90.95
2019-01-05T19:13:52.464Z,91.22
2019-01-05T19:16:42.734Z,91.09
2019-01-05T19:19:33.065Z,91.01
2019-01-05T19:22:30.744Z,90.80
2019-01-05T19:25:21.301Z,91.02
2019-01-05T19:28:11.771Z,90.96
2019-01-05T19:31:07.706Z,91.04
2019-01-05T19:33:59.232Z,90.88
2019-01-05T19:36:49.329Z,90.71
2019-01-05T19:39:44.035Z,90.64
2019-01-05T19:42:38.477Z,90.86
2019-01-05T19:45:26.964Z,90.83
2019-01-05T19:48:30.298Z,90.68
2019-01-05T19:51:13.611Z,90.71
2019-01-05T19:54:06.109Z,91.36
2019-01-05T19:56:55.505Z,91.49
2019-01-05T19:59:53.128Z,91.41
2019-01-05T20:02:59.610Z,91.40
2019-01-05T20:06:06.505Z,91.48
2019-01-05T20:08:55.416Z,91.33
2019-01-05T20:12:01.978Z,91.36
2019-01-05T20:14:52.408Z,91.25
2019-01-05T20:17:42.699Z,91.55
2019-01-05T20:20:36.601Z,91.67
2019-01-05T20:23:33.237Z,91.74
2019-01-05T20:26:30.526Z,91.53
2019-01-05T20:29:25.111Z,91.86
2019-01-05T20:32:19.768Z,91.92
2019-01-05T20:35:23.377Z,91.83
2019-01-05T20:38:22.233Z,91.83
2019-01-05T20:41:26.008Z,92.00
2019-01-05T20:44:32.789Z,91.94
2019-01-05T20:47:27.005Z,91.86
2019-01-05T20:50:07.472Z,91.99
2019-01-05T20:53:01.717Z,91.62
2019-01-05T20:55:57.955Z,91.70
2019-01-05T20:58:47.433Z,91.52
2019-01-05T21:01:51.208Z,91.57
2019-01-05T21:04:41.483Z,91.79
2019-01-05T21:07:31.527Z,91.84
2019-01-05T21:10:26.242Z,91.65
2019-01-05T21:13:17.106Z,91.12
2019-01-05T21:16:07.292Z,91.19
2019-01-05T21:18:57.357Z,91.17
2019-01-05T21:21:47.456Z,91.08
2019-01-05T21:24:54.786Z,91.01
2019-01-05T21:27:55.233Z,91.11
2019-01-05T21:30:46.759Z,91.17
2019-01-05T21:33:38.590Z,91.32
2019-01-05T21:36:39.088Z,91.41
2019-01-05T21:39:29.191Z,91.36
2019-01-05T21:42:13.880Z,91.31
2019-01-05T21:45:03.987Z,91.35
2019-01-05T21:47:54.131Z,91.37
2019-01-05T21:50:44.277Z,91.52
2019-01-05T21:53:54.067Z,91.52
2019-01-05T21:56:48.415Z,91.62
2019-01-05T21:59:58.234Z,91.63
2019-01-05T22:02:58.626Z,91.52
2019-01-05T22:05:50.228Z,91.38
2019-01-05T22:08:46.420Z,91.17
2019-01-05T22:11:41.403Z,91.12
2019-01-05T22:14:33.962Z,91.29
2019-01-05T22:17:23.390Z,91.23
2019-01-05T22:20:13.753Z,91.02
2019-01-05T22:23:04.191Z,91.17
2019-01-05T22:25:54.510Z,91.17
2019-01-05T22:28:48.786Z,91.13
2019-01-05T22:31:46.064Z,91.07
2019-01-05T22:34:46.916Z,91.12
2019-01-05T22:37:36.969Z,91.17
2019-01-05T22:40:35.062Z,91.06
2019-01-05T22:43:25.334Z,91.01
2019-01-05T22:46:28.862Z,91.09
2019-01-05T22:49:23.378Z,90.92
2019-01-05T22:52:23.975Z,90.91
2019-01-05T22:55:18.373Z,91.01
2019-01-05T22:58:07.397Z,91.07
2019-01-05T23:00:58.617Z,91.21
2019-01-05T23:04:05.276Z,91.20
2019-01-05T23:07:00.285Z,91.24
2019-01-05T23:09:57.889Z,91.40
2019-01-05T23:12:58.157Z,91.50
2019-01-05T23:15:48.800Z,91.54
2019-01-05T23:18:49.285Z,91.73
2019-01-05T23:21:43.837Z,91.74
2019-01-05T23:24:50.144Z,91.77
2019-01-05T23:27:57.446Z,91.62
2019-01-05T23:30:48.929Z,91.85
2019-01-05T23:33:58.508Z,91.50
2019-01-05T23:37:01.921Z,91.39
2019-01-05T23:39:59.209Z,91.35
2019-01-05T23:43:02.959Z,91.54
2019-01-05T23:46:09.791Z,91.62
2019-01-05T23:48:59.769Z,91.79
2019-01-05T23:51:49.771Z,91.75
2019-01-05T23:54:41.278Z,91.66
2019-01-05T23:57:41.885Z,91.50
